createdAt,value
2023-03-15T00:00:12.490Z,79.35
2023-03-15T00:02:40.035Z,79.07
2023-03-15T00:05:10.161Z,79.58
2023-03-15T00:07:39.863Z,79.12
2023-03-15T00:10:07.488Z,80.00
2023-03-15T00:12:34.529Z,80.38
2023-03-15T00:15:02.696Z,79.65
2023-03-15T00:17:34.805Z,80.55
2023-03-15T00:20:04.963Z,81.28
2023-03-15T00:22:31.920Z,82.60
2023-03-15T00:24:58.854Z,81.80
2023-03-15T00:27:25.913Z,82.91
2023-03-15T00:29:52.760Z,83.07
2023-03-15T00:32:19.742Z,82.88
2023-03-15T00:34:49.246Z,81.62
2023-03-15T00:37:19.763Z,82.42
2023-03-15T00:39:48.420Z,83.61
2023-03-15T00:42:15.977Z,83.10
2023-03-15T00:44:45.776Z,82.44
2023-03-15T00:47:15.048Z,82.85
2023-03-15T00:49:42.130Z,83.50
2023-03-15T00:52:13.592Z,84.23
2023-03-15T00:54:52.199Z,84.15
2023-03-15T00:57:19.361Z,83.52
2023-03-15T00:59:48.674Z,83.49
2023-03-15T01:02:15.528Z,83.00
2023-03-15T01:04:44.887Z,83.29
2023-03-15T01:07:12.163Z,83.52
2023-03-15T01:09:39.115Z,83.23
2023-03-15T01:12:06.611Z,82.79
2023-03-15T01:14:37.180Z,83.12
2023-03-15T01:17:04.077Z,84.46
2023-03-15T01:19:33.102Z,83.89
2023-03-15T01:21:59.983Z,83.27
2023-03-15T01:24:26.914Z,82.85
2023-03-15T01:26:54.038Z,83.48
2023-03-15T01:29:20.918Z,81.77
2023-03-15T01:31:47.892Z,81.56
2023-03-15T01:34:14.820Z,80.95
2023-03-15T01:36:44.216Z,80.54
2023-03-15T01:39:13.563Z,81.57
2023-03-15T01:41:40.440Z,82.36
2023-03-15T01:44:16.071Z,83.50
2023-03-15T01:46:48.260Z,82.80
2023-03-15T01:49:35.212Z,82.70
2023-03-15T01:52:16.037Z,82.40
2023-03-15T01:54:50.102Z,83.26
2023-03-15T01:57:49.835Z,83.68
2023-03-15T02:00:20.384Z,84.17
2023-03-15T02:02:53.568Z,83.72
2023-03-15T02:05:28.586Z,83.79
2023-03-15T02:07:55.966Z,84.95
2023-03-15T02:10:41.580Z,85.00
2023-03-15T02:13:08.775Z,86.17
2023-03-15T02:15:35.929Z,86.10
2023-03-15T02:18:05.328Z,85.84
2023-03-15T02:20:41.884Z,87.79
2023-03-15T02:23:18.770Z,88.06
2023-03-15T02:26:10.201Z,87.56
2023-03-15T02:28:37.869Z,86.85
2023-03-15T02:31:07.378Z,87.28
2023-03-15T02:33:45.503Z,87.32
2023-03-15T02:36:19.301Z,86.46
2023-03-15T02:38:46.670Z,87.78
2023-03-15T02:41:18.079Z,87.31
2023-03-15T02:43:52.504Z,86.76
2023-03-15T02:46:19.769Z,86.98
2023-03-15T02:48:51.643Z,86.52
2023-03-15T02:51:24.895Z,88.33
2023-03-15T02:53:51.978Z,88.50
2023-03-15T02:56:18.859Z,88.86
2023-03-15T02:58:45.876Z,89.64
2023-03-15T03:01:17.677Z,89.81
2023-03-15T03:03:49.974Z,89.30
2023-03-15T03:06:20.919Z,88.83
2023-03-15T03:08:48.044Z,88.10
2023-03-15T03:11:16.464Z,87.47
2023-03-15T03:13:43.907Z,87.94
2023-03-15T03:16:11.312Z,87.90
2023-03-15T03:18:39.000Z,88.09
2023-03-15T03:21:09.451Z,87.01
2023-03-15T03:23:39.385Z,86.81
2023-03-15T03:26:20.041Z,86.07
2023-03-15T03:28:48.792Z,86.68
2023-03-15T03:31:27.528Z,86.05
2023-03-15T03:33:56.902Z,85.86
2023-03-15T03:36:24.939Z,85.39
2023-03-15T03:38:53.779Z,84.62
2023-03-15T03:41:21.422Z,84.91
2023-03-15T03:43:50.949Z,85.44
2023-03-15T03:46:17.947Z,84.78
2023-03-15T03:48:45.074Z,84.77
2023-03-15T03:51:14.079Z,85.21
2023-03-15T03:53:41.210Z,85.45
2023-03-15T03:56:09.065Z,84.68
2023-03-15T03:58:38.199Z,83.54
2023-03-15T04:01:05.901Z,83.90
2023-03-15T04:03:33.482Z,83.99
2023-03-15T04:06:01.859Z,82.85
2023-03-15T04:08:31.795Z,83.55
2023-03-15T04:10:58.735Z,83.10
2023-03-15T04:13:26.014Z,83.08
2023-03-15T04:15:57.472Z,82.33
2023-03-15T04:18:24.982Z,82.24
2023-03-15T04:20:54.639Z,83.01
2023-03-15T04:23:25.025Z,83.32
2023-03-15T04:25:55.253Z,83.39
2023-03-15T04:28:22.867Z,84.48
2023-03-15T04:30:52.597Z,84.79
2023-03-15T04:33:19.522Z,83.40
2023-03-15T04:35:48.944Z,84.16
2023-03-15T04:38:15.956Z,83.40
2023-03-15T04:40:42.998Z,83.22
2023-03-15T04:43:10.224Z,83.81
2023-03-15T04:45:41.779Z,83.67
2023-03-15T04:48:08.780Z,82.96
2023-03-15T04:50:35.784Z,83.65
2023-03-15T04:53:02.754Z,84.03
2023-03-15T04:55:29.795Z,84.31
2023-03-15T04:57:58.800Z,83.56
2023-03-15T05:00:25.737Z,83.11
2023-03-15T05:02:55.079Z,82.55
2023-03-15T05:05:29.455Z,82.59
2023-03-15T05:07:59.472Z,82.21
2023-03-15T05:10:26.614Z,81.88
2023-03-15T05:12:53.608Z,83.88
2023-03-15T05:15:20.660Z,85.13
2023-03-15T05:17:48.873Z,85.40
2023-03-15T05:20:16.685Z,83.68
2023-03-15T05:22:45.764Z,84.01
2023-03-15T05:25:12.867Z,84.02
2023-03-15T05:27:42.511Z,84.14
2023-03-15T05:30:10.675Z,83.53
2023-03-15T05:32:44.591Z,83.20
2023-03-15T05:35:12.817Z,83.94
2023-03-15T05:37:43.486Z,83.37
2023-03-15T05:40:13.514Z,83.61
2023-03-15T05:42:41.282Z,82.86
2023-03-15T05:45:09.043Z,82.39
2023-03-15T05:47:38.550Z,81.92
2023-03-15T05:50:06.216Z,83.56
2023-03-15T05:52:37.963Z,84.11
2023-03-15T05:55:05.410Z,84.11
2023-03-15T05:57:34.897Z,83.43
2023-03-15T06:00:07.192Z,83.37
2023-03-15T06:02:38.826Z,83.26
2023-03-15T06:05:06.502Z,83.18
2023-03-15T06:07:36.313Z,82.84
2023-03-15T06:10:06.582Z,82.57
2023-03-15T06:12:33.597Z,80.69
2023-03-15T06:15:00.642Z,81.65
2023-03-15T06:17:32.527Z,82.73
2023-03-15T06:20:05.076Z,82.29
2023-03-15T06:22:32.359Z,81.34
2023-03-15T06:24:59.632Z,80.95
2023-03-15T06:27:29.093Z,80.58
2023-03-15T06:29:57.393Z,80.43
2023-03-15T06:32:24.434Z,80.71
2023-03-15T06:34:52.263Z,80.58
2023-03-15T06:37:28.824Z,80.48
2023-03-15T06:40:01.333Z,80.06
2023-03-15T06:42:28.306Z,79.93
2023-03-15T06:44:57.377Z,79.80
2023-03-15T06:47:24.302Z,79.62
2023-03-15T06:49:51.295Z,78.53
2023-03-15T06:52:21.938Z,79.92
2023-03-15T06:54:51.032Z,80.31
2023-03-15T06:57:17.986Z,80.84
2023-03-15T06:59:44.833Z,81.65
2023-03-15T07:02:20.986Z,82.18
2023-03-15T07:04:48.132Z,82.08
2023-03-15T07:07:17.984Z,82.34
2023-03-15T07:09:44.950Z,81.47
2023-03-15T07:12:14.554Z,80.79
2023-03-15T07:14:41.451Z,79.88
2023-03-15T07:17:08.397Z,79.87
2023-03-15T07:19:37.311Z,81.07
2023-03-15T07:22:08.459Z,80.28
2023-03-15T07:24:35.404Z,76.55
2023-03-15T07:27:02.283Z,72.62
2023-03-15T07:29:32.258Z,71.44
2023-03-15T07:32:01.307Z,73.65
2023-03-15T07:34:30.585Z,73.01
2023-03-15T07:37:00.181Z,67.86
2023-03-15T07:39:27.117Z,66.39
2023-03-15T07:41:56.550Z,64.11
2023-03-15T07:44:23.561Z,55.73
2023-03-15T07:46:51.012Z,53.59
2023-03-15T07:49:20.540Z,49.12
2023-03-15T07:51:47.780Z,49.33
2023-03-15T07:54:17.730Z,48.77
2023-03-15T07:56:44.734Z,45.06
2023-03-15T07:59:11.841Z,42.74
2023-03-15T08:01:39.154Z,42.03
2023-03-15T08:04:06.111Z,40.92
2023-03-15T08:06:37.755Z,45.28
2023-03-15T08:09:05.817Z,47.04
2023-03-15T08:14:02.902Z,43.22
2023-03-15T08:16:29.841Z,40.54
2023-03-15T08:18:56.844Z,38.72
2023-03-15T08:21:25.928Z,41.52
2023-03-15T08:23:52.904Z,44.75
2023-03-15T08:26:20.098Z,47.58
2023-03-15T08:28:47.081Z,54.00
2023-03-15T08:31:14.202Z,58.37
2023-03-15T08:33:43.795Z,64.59
2023-03-15T08:36:11.165Z,66.63
2023-03-15T08:38:41.767Z,67.08
2023-03-15T08:41:08.669Z,68.69
2023-03-15T08:43:35.680Z,69.05
2023-03-15T08:46:02.644Z,69.60
2023-03-15T08:48:32.199Z,70.56
2023-03-15T08:51:06.979Z,72.16
2023-03-15T08:53:37.778Z,72.50
2023-03-15T08:56:08.063Z,72.29
2023-03-15T08:58:37.996Z,72.13
2023-03-15T09:01:05.158Z,70.45
2023-03-15T09:03:32.834Z,68.54
2023-03-15T09:06:00.255Z,67.39
2023-03-15T09:08:28.269Z,63.68
2023-03-15T09:10:58.966Z,58.20
2023-03-15T09:13:26.282Z,51.60
2023-03-15T09:15:55.508Z,46.06
2023-03-15T09:18:23.789Z,40.34
2023-03-15T09:20:52.949Z,39.49
2023-03-15T09:23:19.839Z,38.40
2023-03-15T09:25:49.839Z,36.06
2023-03-15T09:28:16.921Z,34.66
2023-03-15T09:30:43.863Z,33.03
2023-03-15T09:33:14.620Z,34.23
2023-03-15T09:35:46.334Z,33.87
2023-03-15T09:38:13.179Z,34.03
2023-03-15T09:40:47.611Z,35.14
2023-03-15T09:43:31.824Z,33.80
2023-03-15T09:46:32.968Z,33.35
2023-03-15T09:49:34.058Z,31.01
2023-03-15T09:52:13.498Z,27.36
2023-03-15T09:55:11.366Z,26.86
2023-03-15T09:58:05.466Z,29.77
2023-03-15T10:00:50.886Z,28.85
2023-03-15T10:03:45.254Z,27.09
2023-03-15T10:06:30.286Z,27.11
2023-03-15T10:09:00.523Z,26.19
2023-03-15T10:11:59.324Z,26.09
2023-03-15T10:14:51.170Z,30.05
2023-03-15T10:17:42.691Z,27.62
2023-03-15T10:20:30.076Z,27.16
2023-03-15T10:23:28.646Z,27.50
2023-03-15T10:25:58.196Z,29.78
2023-03-15T10:28:25.573Z,31.83
2023-03-15T10:30:53.095Z,34.92
2023-03-15T10:33:32.040Z,35.68
2023-03-15T10:36:11.323Z,34.94
2023-03-15T10:38:39.386Z,32.34
2023-03-15T10:41:15.283Z,34.21
2023-03-15T10:44:00.474Z,34.10
2023-03-15T10:46:28.060Z,30.80
2023-03-15T10:49:12.073Z,31.53
2023-03-15T10:51:50.718Z,30.83
2023-03-15T10:54:24.187Z,29.83
2023-03-15T10:57:15.826Z,28.96
2023-03-15T11:00:07.072Z,28.89
2023-03-15T11:02:37.363Z,31.63
2023-03-15T11:05:10.291Z,33.96
2023-03-15T11:07:37.434Z,31.79
2023-03-15T11:10:07.082Z,30.70
2023-03-15T11:12:40.968Z,32.71
2023-03-15T11:15:15.857Z,34.88
2023-03-15T11:17:50.668Z,40.75
2023-03-15T11:20:31.899Z,49.35
2023-03-15T11:23:03.280Z,56.03
2023-03-15T11:25:34.270Z,61.71
2023-03-15T11:28:01.394Z,65.64
2023-03-15T11:30:31.464Z,67.04
2023-03-15T11:33:08.515Z,64.78
2023-03-15T11:35:48.401Z,61.98
2023-03-15T11:38:37.796Z,61.12
2023-03-15T11:41:56.728Z,48.74
2023-03-15T11:44:50.113Z,39.00
2023-03-15T11:47:54.257Z,34.90
2023-03-15T11:50:21.492Z,32.82
2023-03-15T11:52:54.586Z,30.02
2023-03-15T11:55:27.876Z,29.67
2023-03-15T11:58:30.981Z,30.16
2023-03-15T12:01:06.975Z,28.46
2023-03-15T12:03:43.461Z,29.67
2023-03-15T12:06:16.268Z,29.42
2023-03-15T12:08:52.997Z,28.96
2023-03-15T12:11:22.954Z,27.90
2023-03-15T12:14:01.161Z,28.24
2023-03-15T12:16:42.044Z,27.00
2023-03-15T12:19:21.080Z,30.21
2023-03-15T12:21:52.258Z,29.42
2023-03-15T12:24:38.518Z,28.87
2023-03-15T12:27:18.618Z,28.45
2023-03-15T12:29:47.525Z,27.09
2023-03-15T12:32:21.086Z,26.36
2023-03-15T12:34:58.371Z,25.83
2023-03-15T12:37:47.828Z,25.53
2023-03-15T12:40:22.458Z,25.23
2023-03-15T12:42:49.581Z,29.92
2023-03-15T12:45:16.648Z,33.11
2023-03-15T12:47:52.627Z,35.95
2023-03-15T12:50:48.015Z,38.72
2023-03-15T12:53:19.809Z,41.35
2023-03-15T12:55:47.655Z,44.18
2023-03-15T12:58:22.198Z,46.21
2023-03-15T13:00:54.450Z,47.75
2023-03-15T13:03:24.195Z,50.34
2023-03-15T13:06:29.176Z,52.00
2023-03-15T13:09:37.276Z,51.98
2023-03-15T13:12:35.019Z,51.52
2023-03-15T13:15:14.816Z,53.39
2023-03-15T13:17:58.768Z,55.90
2023-03-15T13:21:06.028Z,57.98
2023-03-15T13:23:34.422Z,62.41
2023-03-15T13:26:23.473Z,61.07
2023-03-15T13:28:59.616Z,62.37
2023-03-15T13:31:31.566Z,63.88
2023-03-15T13:34:15.052Z,63.09
2023-03-15T13:36:49.229Z,61.67
2023-03-15T13:39:26.000Z,53.33
2023-03-15T13:42:20.593Z,43.24
2023-03-15T13:44:47.532Z,38.17
2023-03-15T13:47:24.343Z,38.30
2023-03-15T13:49:56.782Z,35.36
2023-03-15T13:52:23.794Z,34.76
2023-03-15T13:54:53.970Z,33.35
2023-03-15T13:57:23.594Z,32.59
2023-03-15T13:59:54.453Z,30.60
2023-03-15T14:02:27.815Z,32.16
2023-03-15T14:05:05.443Z,31.75
2023-03-15T14:07:46.665Z,32.17
2023-03-15T14:10:27.315Z,30.43
2023-03-15T14:12:58.267Z,28.47
2023-03-15T14:15:44.325Z,28.44
2023-03-15T14:18:11.232Z,29.58
2023-03-15T14:20:45.254Z,29.12
2023-03-15T14:23:19.156Z,29.23
2023-03-15T14:26:11.594Z,28.31
2023-03-15T14:28:39.980Z,28.66
2023-03-15T14:31:27.738Z,25.96
2023-03-15T14:34:08.041Z,25.87
2023-03-15T14:36:43.938Z,27.26
2023-03-15T14:39:25.815Z,27.69
2023-03-15T14:41:57.831Z,29.01
2023-03-15T14:44:25.002Z,32.20
2023-03-15T14:46:52.434Z,34.16
2023-03-15T14:49:29.620Z,35.71
2023-03-15T14:52:03.604Z,38.95
2023-03-15T14:54:31.831Z,39.68
2023-03-15T14:56:58.775Z,42.07
2023-03-15T14:59:25.945Z,42.00
2023-03-15T15:02:01.170Z,42.93
2023-03-15T15:04:33.813Z,46.70
2023-03-15T15:07:03.222Z,51.32
2023-03-15T15:09:32.919Z,54.21
2023-03-15T15:11:59.869Z,56.43
2023-03-15T15:14:29.849Z,57.36
2023-03-15T15:16:56.993Z,58.61
2023-03-15T15:19:24.070Z,59.54
2023-03-15T15:21:51.684Z,62.44
2023-03-15T15:24:24.201Z,66.11
2023-03-15T15:26:51.255Z,69.53
2023-03-15T15:29:21.447Z,72.05
2023-03-15T15:31:48.362Z,71.70
2023-03-15T15:34:15.647Z,71.41
2023-03-15T15:36:46.152Z,70.21
2023-03-15T15:39:31.489Z,66.29
2023-03-15T15:42:00.993Z,56.58
2023-03-15T15:44:28.350Z,58.69
2023-03-15T15:46:55.450Z,61.83
2023-03-15T15:49:25.193Z,61.84
2023-03-15T15:51:52.565Z,65.05
2023-03-15T15:54:26.427Z,68.22
2023-03-15T15:57:06.338Z,69.40
2023-03-15T15:59:38.758Z,71.81
2023-03-15T16:02:17.370Z,72.19
2023-03-15T16:04:44.511Z,72.63
2023-03-15T16:07:15.186Z,72.19
2023-03-15T16:09:44.225Z,75.09
2023-03-15T16:12:27.219Z,74.16
2023-03-15T16:14:54.874Z,73.84
2023-03-15T16:17:25.595Z,73.29
2023-03-15T16:19:55.191Z,72.21
2023-03-15T16:22:27.120Z,72.02
2023-03-15T16:24:57.146Z,71.80
2023-03-15T16:27:26.892Z,72.04
2023-03-15T16:29:56.052Z,72.02
2023-03-15T16:32:42.888Z,70.40
2023-03-15T16:35:17.656Z,71.00
2023-03-15T16:37:46.582Z,71.39
2023-03-15T16:40:23.170Z,71.95
2023-03-15T16:42:50.691Z,72.86
2023-03-15T16:45:20.350Z,71.17
2023-03-15T16:47:49.714Z,72.74
2023-03-15T16:50:19.891Z,73.79
2023-03-15T16:52:58.875Z,73.01
2023-03-15T16:55:33.021Z,73.69
2023-03-15T16:58:13.934Z,73.89
2023-03-15T17:00:44.330Z,73.40
2023-03-15T17:03:14.537Z,73.11
2023-03-15T17:05:45.612Z,73.45
2023-03-15T17:08:20.058Z,74.35
2023-03-15T17:10:49.974Z,74.22
2023-03-15T17:13:28.492Z,75.57
2023-03-15T17:15:57.725Z,76.13
2023-03-15T17:18:24.623Z,77.62
2023-03-15T17:20:51.784Z,77.39
2023-03-15T17:23:21.850Z,77.17
2023-03-15T17:25:49.484Z,77.14
2023-03-15T17:28:16.774Z,76.51
2023-03-15T17:30:43.701Z,76.94
2023-03-15T17:33:11.744Z,78.60
2023-03-15T17:35:48.817Z,78.68
2023-03-15T17:38:21.778Z,78.50
2023-03-15T17:40:49.211Z,79.71
2023-03-15T17:43:17.266Z,79.31
2023-03-15T17:45:44.540Z,79.83
2023-03-15T17:48:11.950Z,80.20
2023-03-15T17:50:41.453Z,81.51
2023-03-15T17:53:18.090Z,82.51
2023-03-15T17:55:53.460Z,82.66
2023-03-15T17:58:23.072Z,82.62
2023-03-15T18:00:52.597Z,82.68
2023-03-15T18:03:19.593Z,83.47
2023-03-15T18:05:47.327Z,83.63
2023-03-15T18:08:21.365Z,83.77
2023-03-15T18:10:50.643Z,84.01
2023-03-15T18:13:21.495Z,84.34
2023-03-15T18:15:49.777Z,83.95
2023-03-15T18:18:19.374Z,84.46
2023-03-15T18:20:49.601Z,85.27
2023-03-15T18:23:17.684Z,84.72
2023-03-15T18:25:48.249Z,85.66
2023-03-15T18:28:15.382Z,84.85
2023-03-15T18:30:44.168Z,83.86
2023-03-15T18:33:16.069Z,84.51
2023-03-15T18:35:46.006Z,84.67
2023-03-15T18:38:13.076Z,84.48
2023-03-15T18:40:39.929Z,83.95
2023-03-15T18:43:06.966Z,84.21
2023-03-15T18:45:37.150Z,85.38
2023-03-15T18:48:07.253Z,85.65
2023-03-15T18:50:35.333Z,85.25
2023-03-15T18:53:06.065Z,86.00
2023-03-15T18:55:33.708Z,84.47
2023-03-15T18:58:03.129Z,84.51
2023-03-15T19:00:35.924Z,83.26
2023-03-15T19:03:05.101Z,83.82
2023-03-15T19:05:37.249Z,84.82
2023-03-15T19:08:04.335Z,85.23
2023-03-15T19:10:31.360Z,84.89
2023-03-15T19:12:58.220Z,84.23
2023-03-15T19:15:28.106Z,83.63
2023-03-15T19:17:57.299Z,84.09
2023-03-15T19:20:26.812Z,84.28
2023-03-15T19:22:55.997Z,84.68
2023-03-15T19:25:22.983Z,84.30
2023-03-15T19:27:49.990Z,83.76
2023-03-15T19:30:21.167Z,84.09
2023-03-15T19:32:49.939Z,83.67
2023-03-15T19:35:23.182Z,84.62
2023-03-15T19:37:50.429Z,84.20
2023-03-15T19:40:20.767Z,84.23
2023-03-15T19:42:51.261Z,84.34
2023-03-15T19:45:20.831Z,85.40
2023-03-15T19:47:47.825Z,85.63
2023-03-15T19:50:15.512Z,85.65
2023-03-15T19:52:48.381Z,85.86
2023-03-15T19:55:22.458Z,85.83
2023-03-15T19:57:49.353Z,86.25
2023-03-15T20:00:20.431Z,86.73
2023-03-15T20:02:52.160Z,86.10
2023-03-15T20:05:23.229Z,85.94
2023-03-15T20:07:54.281Z,85.42
2023-03-15T20:10:24.412Z,85.73
2023-03-15T20:12:59.175Z,85.67
2023-03-15T20:15:29.969Z,85.71
2023-03-15T20:17:59.081Z,85.53
2023-03-15T20:20:25.968Z,84.60
2023-03-15T20:22:52.859Z,84.84
2023-03-15T20:25:20.564Z,85.06
2023-03-15T20:27:47.898Z,85.05
2023-03-15T20:30:17.317Z,85.46
2023-03-15T20:32:44.613Z,84.81
2023-03-15T20:35:12.311Z,85.02
2023-03-15T20:37:42.975Z,85.23
2023-03-15T20:40:13.364Z,84.27
2023-03-15T20:42:41.283Z,84.87
2023-03-15T20:45:12.859Z,85.36
2023-03-15T20:47:41.328Z,85.52
2023-03-15T20:50:10.885Z,86.05
2023-03-15T20:52:43.420Z,85.71
2023-03-15T20:55:16.012Z,86.33
2023-03-15T20:57:45.773Z,85.88
2023-03-15T21:00:23.071Z,86.32
2023-03-15T21:02:50.469Z,85.70
2023-03-15T21:05:18.033Z,86.57
2023-03-15T21:07:45.846Z,86.24
2023-03-15T21:10:13.744Z,86.35
2023-03-15T21:12:40.802Z,86.42
2023-03-15T21:15:08.367Z,86.36
2023-03-15T21:17:35.306Z,86.44
2023-03-15T21:20:02.216Z,85.70
2023-03-15T21:22:34.552Z,85.92
2023-03-15T21:25:02.082Z,85.79
2023-03-15T21:27:34.185Z,86.33
2023-03-15T21:30:01.345Z,86.44
2023-03-15T21:32:28.464Z,86.00
2023-03-15T21:34:58.503Z,85.77
2023-03-15T21:37:25.407Z,86.27
2023-03-15T21:39:54.090Z,86.63
2023-03-15T21:42:21.004Z,86.28
2023-03-15T21:44:50.320Z,86.89
2023-03-15T21:47:18.007Z,86.35
2023-03-15T21:49:45.049Z,85.78
2023-03-15T21:52:16.264Z,86.46
2023-03-15T21:54:44.890Z,86.48
2023-03-15T21:57:14.205Z,87.39
2023-03-15T21:59:45.707Z,86.41
2023-03-15T22:02:14.260Z,87.08
2023-03-15T22:04:46.524Z,87.15
2023-03-15T22:07:13.544Z,86.10
2023-03-15T22:09:41.871Z,86.35
2023-03-15T22:12:09.554Z,85.55
2023-03-15T22:14:41.233Z,85.75
2023-03-15T22:17:08.525Z,85.17
2023-03-15T22:19:35.678Z,84.58
2023-03-15T22:22:05.161Z,83.89
2023-03-15T22:24:34.024Z,84.58
2023-03-15T22:27:01.941Z,84.77
2023-03-15T22:29:29.768Z,85.38
2023-03-15T22:31:56.691Z,85.96
2023-03-15T22:34:27.173Z,85.50
2023-03-15T22:36:54.299Z,86.07
2023-03-15T22:39:24.138Z,85.36
2023-03-15T22:41:51.032Z,86.02
2023-03-15T22:44:20.562Z,85.79
2023-03-15T22:46:50.167Z,85.20
2023-03-15T22:49:17.045Z,85.10
2023-03-15T22:51:46.197Z,85.11
2023-03-15T22:54:13.223Z,86.65
2023-03-15T22:56:43.254Z,86.48
2023-03-15T22:59:12.366Z,86.69
2023-03-15T23:01:44.013Z,86.46
2023-03-15T23:04:16.469Z,86.38
2023-03-15T23:06:43.481Z,87.58
2023-03-15T23:09:11.028Z,88.10
2023-03-15T23:11:37.971Z,88.64
2023-03-15T23:14:09.539Z,89.54
2023-03-15T23:16:36.457Z,90.04
2023-03-15T23:19:08.827Z,90.01
2023-03-15T23:21:36.087Z,89.68
2023-03-15T23:24:03.050Z,88.56
2023-03-15T23:26:29.961Z,88.26
2023-03-15T23:28:57.249Z,90.13
2023-03-15T23:31:26.766Z,89.65
2023-03-15T23:33:53.686Z,88.98
2023-03-15T23:36:20.505Z,89.38
2023-03-15T23:38:47.396Z,90.14
2023-03-15T23:41:14.377Z,89.90
2023-03-15T23:43:41.639Z,90.52
2023-03-15T23:46:14.439Z,90.70
2023-03-15T23:48:42.237Z,90.86
2023-03-15T23:51:12.648Z,90.55
2023-03-15T23:53:39.752Z,90.01
2023-03-15T23:56:07.338Z,89.89
2023-03-15T23:58:34.280Z,89.29
